sensor_id;sensor_type;location;lat;lon;timestamp;pressure;altitude;pressure_sealevel;temperature;humidity
73457;BME280;61691;53.072;6.582;2023-02-28T00:00:37;103210.94;;;4.91;72.93
73457;BME280;61691;53.072;6.582;2023-02-28T00:03:04;103180.63;;;4.78;73.28
73457;BME280;61691;53.072;6.582;2023-02-28T00:05:31;103205.56;;;4.96;73.24
73457;BME280;61691;53.072;6.582;2023-02-28T00:07:58;103212.41;;;5.01;73.53
73457;BME280;61691;53.072;6.582;2023-02-28T00:10:28;103208.06;;;5.00;73.31
73457;BME280;61691;53.072;6.582;2023-02-28T00:13:00;103221.25;;;4.99;73.06
73457;BME280;61691;53.072;6.582;2023-02-28T00:15:27;103211.63;;;4.98;73.16
73457;BME280;61691;53.072;6.582;2023-02-28T00:17:54;103186.72;;;4.80;73.20
73457;BME280;61691;53.072;6.582;2023-02-28T00:20:21;103211.81;;;4.90;73.19
73457;BME280;61691;53.072;6.582;2023-02-28T00:22:50;103213.38;;;4.97;73.75
73457;BME280;61691;53.072;6.582;2023-02-28T00:25:20;103215.13;;;4.98;73.73
73457;BME280;61691;53.072;6.582;2023-02-28T00:27:48;103228.25;;;4.98;73.40
73457;BME280;61691;53.072;6.582;2023-02-28T00:30:18;103212.50;;;4.98;73.86
73457;BME280;61691;53.072;6.582;2023-02-28T00:32:45;103204.75;;;4.94;73.74
73457;BME280;61691;53.072;6.582;2023-02-28T00:35:13;103214.28;;;4.96;73.66
73457;BME280;61691;53.072;6.582;2023-02-28T00:37:40;103196.88;;;4.92;73.57
73457;BME280;61691;53.072;6.582;2023-02-28T00:40:08;103184.78;;;4.87;73.66
73457;BME280;61691;53.072;6.582;2023-02-28T00:42:36;103210.69;;;5.00;73.52
73457;BME280;61691;53.072;6.582;2023-02-28T00:45:03;103200.19;;;5.00;73.68
73457;BME280;61691;53.072;6.582;2023-02-28T00:47:35;103195.81;;;4.99;73.83
73457;BME280;61691;53.072;6.582;2023-02-28T00:50:03;103173.28;;;4.91;73.63
73457;BME280;61691;53.072;6.582;2023-02-28T00:52:30;103157.66;;;4.85;73.90
73457;BME280;61691;53.072;6.582;2023-02-28T00:54:57;103153.44;;;4.79;74.03
73457;BME280;61691;53.072;6.582;2023-02-28T00:57:24;103179.22;;;4.97;73.67
73457;BME280;61691;53.072;6.582;2023-02-28T00:59:50;103146.53;;;4.75;73.86
73457;BME280;61691;53.072;6.582;2023-02-28T01:02:17;103122.50;;;4.58;73.84
73457;BME280;61691;53.072;6.582;2023-02-28T01:04:46;103195.00;;;4.97;73.61
73457;BME280;61691;53.072;6.582;2023-02-28T01:07:13;103173.50;;;4.82;73.91
73457;BME280;61691;53.072;6.582;2023-02-28T01:09:41;103172.72;;;4.80;73.87
73457;BME280;61691;53.072;6.582;2023-02-28T01:12:08;103161.50;;;4.73;73.92
73457;BME280;61691;53.072;6.582;2023-02-28T01:14:35;103189.13;;;4.88;74.03
73457;BME280;61691;53.072;6.582;2023-02-28T01:17:02;103213.31;;;5.00;73.98
73457;BME280;61691;53.072;6.582;2023-02-28T01:19:29;103207.16;;;5.01;74.14
73457;BME280;61691;53.072;6.582;2023-02-28T01:21:56;103189.00;;;4.92;74.12
73457;BME280;61691;53.072;6.582;2023-02-28T01:24:22;103195.81;;;4.99;74.16
73457;BME280;61691;53.072;6.582;2023-02-28T01:26:49;103191.47;;;4.98;74.05
73457;BME280;61691;53.072;6.582;2023-02-28T01:29:16;103197.56;;;5.00;74.47
73457;BME280;61691;53.072;6.582;2023-02-28T01:31:43;103192.31;;;4.99;74.52
73457;BME280;61691;53.072;6.582;2023-02-28T01:34:10;103121.56;;;4.59;74.27
73457;BME280;61691;53.072;6.582;2023-02-28T01:36:36;103182.69;;;4.99;74.00
73457;BME280;61691;53.072;6.582;2023-02-28T01:39:03;103174.06;;;4.94;74.27
73457;BME280;61691;53.072;6.582;2023-02-28T01:41:32;103191.28;;;5.04;74.50
73457;BME280;61691;53.072;6.582;2023-02-28T01:44:06;103190.44;;;5.04;74.26
73457;BME280;61691;53.072;6.582;2023-02-28T01:46:35;103189.59;;;5.03;74.39
73457;BME280;61691;53.072;6.582;2023-02-28T01:49:09;103170.59;;;4.92;74.26
73457;BME280;61691;53.072;6.582;2023-02-28T01:51:56;103179.22;;;4.97;74.44
73457;BME280;61691;53.072;6.582;2023-02-28T01:54:31;103137.03;;;4.71;74.30
73457;BME280;61691;53.072;6.582;2023-02-28T01:57:05;103183.47;;;5.03;74.48
73457;BME280;61691;53.072;6.582;2023-02-28T01:59:37;103171.44;;;4.94;74.27
73457;BME280;61691;53.072;6.582;2023-02-28T02:02:07;103086.03;;;4.46;74.31
73457;BME280;61691;53.072;6.582;2023-02-28T02:04:46;103170.44;;;4.98;74.56
73457;BME280;61691;53.072;6.582;2023-02-28T02:07:16;103178.22;;;5.03;74.53
73457;BME280;61691;53.072;6.582;2023-02-28T02:09:43;103143.69;;;4.83;74.57
73457;BME280;61691;53.072;6.582;2023-02-28T02:15:13;103170.38;;;5.01;74.57
73457;BME280;61691;53.072;6.582;2023-02-28T02:17:46;103152.13;;;4.95;74.97
73457;BME280;61691;53.072;6.582;2023-02-28T02:26:31;103159.84;;;5.01;74.83
73457;BME280;61691;53.072;6.582;2023-02-28T02:32:25;103157.25;;;5.00;74.82
73457;BME280;61691;53.072;6.582;2023-02-28T02:35:05;103156.56;;;4.93;74.94
73457;BME280;61691;53.072;6.582;2023-02-28T02:37:57;103113.44;;;4.68;75.27
73457;BME280;61691;53.072;6.582;2023-02-28T02:40:31;103137.56;;;4.84;75.19
73457;BME280;61691;53.072;6.582;2023-02-28T02:43:16;103112.69;;;4.64;75.52
73457;BME280;61691;53.072;6.582;2023-02-28T02:45:50;103154.97;;;4.88;75.40
73457;BME280;61691;53.072;6.582;2023-02-28T02:48:22;103161.88;;;4.90;75.38
73457;BME280;61691;53.072;6.582;2023-02-28T02:50:55;103167.06;;;4.93;75.33
73457;BME280;61691;53.072;6.582;2023-02-28T02:53:35;103142.94;;;4.79;75.33
73457;BME280;61691;53.072;6.582;2023-02-28T02:56:05;103158.53;;;4.85;75.38
73457;BME280;61691;53.072;6.582;2023-02-28T02:58:40;103135.16;;;4.75;75.64
73457;BME280;61691;53.072;6.582;2023-02-28T03:01:10;103170.69;;;4.89;75.84
73457;BME280;61691;53.072;6.582;2023-02-28T03:03:39;103147.34;;;4.79;75.53
73457;BME280;61691;53.072;6.582;2023-02-28T03:06:06;103167.25;;;4.87;75.47
73457;BME280;61691;53.072;6.582;2023-02-28T03:08:36;103161.13;;;4.87;75.89
73457;BME280;61691;53.072;6.582;2023-02-28T03:11:06;103142.31;;;4.70;76.00
73457;BME280;61691;53.072;6.582;2023-02-28T03:14:00;103165.69;;;4.80;76.22
73457;BME280;61691;53.072;6.582;2023-02-28T03:30:26;103153.88;;;4.62;76.74
73457;BME280;61691;53.072;6.582;2023-02-28T03:33:10;103168.63;;;4.68;76.52
73457;BME280;61691;53.072;6.582;2023-02-28T03:35:42;103135.09;;;4.44;76.29
73457;BME280;61691;53.072;6.582;2023-02-28T03:38:21;103167.88;;;4.63;76.39
73457;BME280;61691;53.072;6.582;2023-02-28T03:40:51;103170.47;;;4.64;76.53
73457;BME280;61691;53.072;6.582;2023-02-28T03:43:26;103161.91;;;4.58;76.39
73457;BME280;61691;53.072;6.582;2023-02-28T03:45:56;103162.84;;;4.55;76.75
73457;BME280;61691;53.072;6.582;2023-02-28T03:48:33;103156.03;;;4.47;76.67
73457;BME280;61691;53.072;6.582;2023-02-28T03:51:07;103174.19;;;4.56;76.41
73457;BME280;61691;53.072;6.582;2023-02-28T03:53:39;103162.31;;;4.41;76.56
73457;BME280;61691;53.072;6.582;2023-02-28T03:56:16;103128.78;;;4.17;76.96
73457;BME280;61691;53.072;6.582;2023-02-28T04:01:44;103180.66;;;4.43;76.83
73457;BME280;61691;53.072;6.582;2023-02-28T04:04:13;103169.50;;;4.35;76.69
73457;BME280;61691;53.072;6.582;2023-02-28T04:06:41;103179.09;;;4.36;76.88
73457;BME280;61691;53.072;6.582;2023-02-28T04:09:10;103172.19;;;4.32;77.04
73457;BME280;61691;53.072;6.582;2023-02-28T04:11:51;103160.31;;;4.15;77.08
73457;BME280;61691;53.072;6.582;2023-02-28T04:14:19;103139.47;;;4.09;77.10
73457;BME280;61691;53.072;6.582;2023-02-28T04:16:45;103156.78;;;4.16;76.96
73457;BME280;61691;53.072;6.582;2023-02-28T04:19:13;103163.81;;;4.16;77.43
73457;BME280;61691;53.072;6.582;2023-02-28T04:21:45;103162.97;;;4.14;77.41
73457;BME280;61691;53.072;6.582;2023-02-28T04:24:19;103143.28;;;3.96;77.19
73457;BME280;61691;53.072;6.582;2023-02-28T04:26:47;103177.75;;;4.18;77.10
73457;BME280;61691;53.072;6.582;2023-02-28T04:29:20;103175.09;;;4.19;77.79
73457;BME280;61691;53.072;6.582;2023-02-28T04:31:47;103179.47;;;4.20;77.16
73457;BME280;61691;53.072;6.582;2023-02-28T04:34:14;103172.41;;;4.22;77.76
73457;BME280;61691;53.072;6.582;2023-02-28T04:36:41;103174.22;;;4.20;77.39
73457;BME280;61691;53.072;6.582;2023-02-28T04:39:08;103182.00;;;4.23;77.52
73457;BME280;61691;53.072;6.582;2023-02-28T04:41:36;103172.47;;;4.19;77.31
73457;BME280;61691;53.072;6.582;2023-02-28T04:44:03;103177.72;;;4.19;77.47
73457;BME280;61691;53.072;6.582;2023-02-28T04:46:30;103191.66;;;4.21;77.58
73457;BME280;61691;53.072;6.582;2023-02-28T04:48:57;103183.84;;;4.20;77.45
73457;BME280;61691;53.072;6.582;2023-02-28T04:51:24;103167.50;;;4.07;77.80
73457;BME280;61691;53.072;6.582;2023-02-28T04:53:51;103185.56;;;4.21;77.46
73457;BME280;61691;53.072;6.582;2023-02-28T04:56:18;103164.88;;;4.07;77.33
73457;BME280;61691;53.072;6.582;2023-02-28T04:58:46;103181.22;;;4.20;77.84
73457;BME280;61691;53.072;6.582;2023-02-28T05:01:25;103191.59;;;4.24;77.37
73457;BME280;61691;53.072;6.582;2023-02-28T05:03:54;103189.88;;;4.23;77.63
73457;BME280;61691;53.072;6.582;2023-02-28T05:06:23;103181.09;;;4.24;77.62
73457;BME280;61691;53.072;6.582;2023-02-28T05:08:50;103183.84;;;4.20;77.65
73457;BME280;61691;53.072;6.582;2023-02-28T05:13:46;103158.81;;;4.05;77.40
73457;BME280;61691;53.072;6.582;2023-02-28T05:16:14;103157.25;;;3.98;77.34
73457;BME280;61691;53.072;6.582;2023-02-28T05:18:41;103176.22;;;4.09;77.89
73457;BME280;61691;53.072;6.582;2023-02-28T05:21:28;103195.34;;;4.14;77.95
73457;BME280;61691;53.072;6.582;2023-02-28T05:23:58;103190.16;;;4.13;77.86
73457;BME280;61691;53.072;6.582;2023-02-28T05:26:26;103182.34;;;4.10;77.98
73457;BME280;61691;53.072;6.582;2023-02-28T05:28:54;103186.66;;;4.12;77.75
73457;BME280;61691;53.072;6.582;2023-02-28T05:31:21;103182.34;;;4.10;77.98
73457;BME280;61691;53.072;6.582;2023-02-28T05:33:47;103184.16;;;4.06;77.61
73457;BME280;61691;53.072;6.582;2023-02-28T05:36:14;103172.91;;;4.01;77.90
73457;BME280;61691;53.072;6.582;2023-02-28T05:38:41;103120.22;;;3.73;78.04
73457;BME280;61691;53.072;6.582;2023-02-28T05:41:09;103174.47;;;4.10;78.02
73457;BME280;61691;53.072;6.582;2023-02-28T05:43:37;103180.56;;;4.10;77.64
73457;BME280;61691;53.072;6.582;2023-02-28T05:46:08;103198.94;;;4.10;77.76
73457;BME280;61691;53.072;6.582;2023-02-28T05:48:37;103184.31;;;3.99;77.93
73457;BME280;61691;53.072;6.582;2023-02-28T05:51:05;103180.09;;;3.93;77.90
73457;BME280;61691;53.072;6.582;2023-02-28T05:53:32;103207.03;;;4.00;77.96
73457;BME280;61691;53.072;6.582;2023-02-28T05:55:59;103195.69;;;3.99;78.29
73457;BME280;61691;53.072;6.582;2023-02-28T05:58:27;103180.22;;;3.87;78.19
73457;BME280;61691;53.072;6.582;2023-02-28T06:00:58;103204.47;;;3.98;77.83
73457;BME280;61691;53.072;6.582;2023-02-28T06:03:26;103203.66;;;3.95;78.27
73457;BME280;61691;53.072;6.582;2023-02-28T06:05:53;103199.28;;;3.95;77.74
73457;BME280;61691;53.072;6.582;2023-02-28T06:08:20;103164.97;;;3.66;77.66
73457;BME280;61691;53.072;6.582;2023-02-28T06:10:47;103199.56;;;3.83;77.66
73457;BME280;61691;53.072;6.582;2023-02-28T06:13:13;103200.50;;;3.80;77.91
73457;BME280;61691;53.072;6.582;2023-02-28T06:15:40;103203.09;;;3.82;77.69
73457;BME280;61691;53.072;6.582;2023-02-28T06:18:08;103204.88;;;3.80;78.14
73457;BME280;61691;53.072;6.582;2023-02-28T06:20:34;103198.97;;;3.70;78.08
73457;BME280;61691;53.072;6.582;2023-02-28T06:23:03;103197.16;;;3.72;78.21
73457;BME280;61691;53.072;6.582;2023-02-28T06:25:29;103209.25;;;3.79;77.76
73457;BME280;61691;53.072;6.582;2023-02-28T06:27:56;103217.25;;;3.75;78.44
73457;BME280;61691;53.072;6.582;2023-02-28T06:30:23;103212.84;;;3.75;77.90
73457;BME280;61691;53.072;6.582;2023-02-28T06:32:54;103213.72;;;3.76;78.25
73457;BME280;61691;53.072;6.582;2023-02-28T06:35:21;103224.13;;;3.79;78.33
73457;BME280;61691;53.072;6.582;2023-02-28T06:37:48;103222.41;;;3.78;78.24
73457;BME280;61691;53.072;6.582;2023-02-28T06:40:15;103217.28;;;3.72;78.41
73457;BME280;61691;53.072;6.582;2023-02-28T06:42:42;103188.00;;;3.52;78.18
73457;BME280;61691;53.072;6.582;2023-02-28T06:45:10;103213.78;;;3.73;78.19
73457;BME280;61691;53.072;6.582;2023-02-28T06:47:39;103212.03;;;3.72;78.43
73457;BME280;61691;53.072;6.582;2023-02-28T06:50:11;103229.31;;;3.82;78.56
73457;BME280;61691;53.072;6.582;2023-02-28T06:52:38;103209.47;;;3.69;78.12
73457;BME280;61691;53.072;6.582;2023-02-28T06:55:07;103231.88;;;3.85;78.10
73457;BME280;61691;53.072;6.582;2023-02-28T06:57:35;103223.25;;;3.80;78.12
73457;BME280;61691;53.072;6.582;2023-02-28T07:00:07;103231.00;;;3.84;78.18
73457;BME280;61691;53.072;6.582;2023-02-28T07:02:35;103234.50;;;3.85;78.19
73457;BME280;61691;53.072;6.582;2023-02-28T07:05:04;103225.97;;;3.75;77.92
73457;BME280;61691;53.072;6.582;2023-02-28T07:07:31;103226.78;;;3.77;78.35
73457;BME280;61691;53.072;6.582;2023-02-28T07:09:59;103227.66;;;3.78;78.25
73457;BME280;61691;53.072;6.582;2023-02-28T07:12:25;103250.19;;;3.88;78.32
73457;BME280;61691;53.072;6.582;2023-02-28T07:14:52;103225.88;;;3.80;77.92
73457;BME280;61691;53.072;6.582;2023-02-28T07:17:19;103194.84;;;3.59;78.10
73457;BME280;61691;53.072;6.582;2023-02-28T07:19:45;103258.88;;;3.90;78.13
73457;BME280;61691;53.072;6.582;2023-02-28T07:22:12;103252.72;;;3.91;78.28
73457;BME280;61691;53.072;6.582;2023-02-28T07:24:41;103252.63;;;3.96;78.24
73457;BME280;61691;53.072;6.582;2023-02-28T07:27:08;103221.53;;;3.77;78.26
73457;BME280;61691;53.072;6.582;2023-02-28T07:29:35;103251.78;;;3.95;78.35
73457;BME280;61691;53.072;6.582;2023-02-28T07:32:02;103255.22;;;3.97;78.17
73457;BME280;61691;53.072;6.582;2023-02-28T07:34:29;103260.41;;;4.00;78.01
73457;BME280;61691;53.072;6.582;2023-02-28T07:36:55;103243.09;;;3.92;77.90
73457;BME280;61691;53.072;6.582;2023-02-28T07:39:22;103245.53;;;3.99;77.88
73457;BME280;61691;53.072;6.582;2023-02-28T07:41:49;103264.53;;;4.12;78.06
73457;BME280;61691;53.072;6.582;2023-02-28T07:44:19;103256.88;;;4.01;77.99
73457;BME280;61691;53.072;6.582;2023-02-28T07:46:46;103242.13;;;3.96;77.77
73457;BME280;61691;53.072;6.582;2023-02-28T07:49:13;103273.28;;;4.12;78.15
73457;BME280;61691;53.072;6.582;2023-02-28T07:51:40;103242.91;;;3.99;78.15
73457;BME280;61691;53.072;6.582;2023-02-28T07:54:07;103260.06;;;4.15;78.14
73457;BME280;61691;53.072;6.582;2023-02-28T07:56:34;103258.28;;;4.17;77.73
73457;BME280;61691;53.072;6.582;2023-02-28T07:59:01;103249.66;;;4.12;77.84
73457;BME280;61691;53.072;6.582;2023-02-28T08:01:28;103258.34;;;4.14;78.02
73457;BME280;61691;53.072;6.582;2023-02-28T08:03:56;103236.72;;;4.03;78.06
73457;BME280;61691;53.072;6.582;2023-02-28T08:06:24;103260.03;;;4.17;78.00
73457;BME280;61691;53.072;6.582;2023-02-28T08:08:52;103273.97;;;4.20;77.81
73457;BME280;61691;53.072;6.582;2023-02-28T08:11:19;103267.03;;;4.16;77.79
73457;BME280;61691;53.072;6.582;2023-02-28T08:13:46;103261.88;;;4.13;78.08
73457;BME280;61691;53.072;6.582;2023-02-28T08:16:13;103284.19;;;4.33;78.00
73457;BME280;61691;53.072;6.582;2023-02-28T08:18:50;103266.03;;;4.22;77.97
73457;BME280;61691;53.072;6.582;2023-02-28T08:21:18;103281.50;;;4.36;78.09
73457;BME280;61691;53.072;6.582;2023-02-28T08:23:49;103289.97;;;4.47;78.14
73457;BME280;61691;53.072;6.582;2023-02-28T08:26:17;103281.31;;;4.43;77.84
73457;BME280;61691;53.072;6.582;2023-02-28T08:28:44;103275.97;;;4.46;77.68
73457;BME280;61691;53.072;6.582;2023-02-28T08:31:13;103297.56;;;4.59;78.19
73457;BME280;61691;53.072;6.582;2023-02-28T08:33:42;103291.41;;;4.60;77.49
73457;BME280;61691;53.072;6.582;2023-02-28T08:36:10;103253.41;;;4.39;77.70
73457;BME280;61691;53.072;6.582;2023-02-28T08:38:37;103302.59;;;4.68;77.74
73457;BME280;61691;53.072;6.582;2023-02-28T08:41:07;103292.09;;;4.68;77.79
73457;BME280;61691;53.072;6.582;2023-02-28T08:43:35;103285.25;;;4.61;77.97
73457;BME280;61691;53.072;6.582;2023-02-28T08:46:03;103305.06;;;4.74;77.79
73457;BME280;61691;53.072;6.582;2023-02-28T08:48:31;103310.22;;;4.80;77.50
73457;BME280;61691;53.072;6.582;2023-02-28T08:51:05;103283.31;;;4.69;77.85
73457;BME280;61691;53.072;6.582;2023-02-28T08:53:39;103272.66;;;4.75;77.58
73457;BME280;61691;53.072;6.582;2023-02-28T08:56:11;103274.81;;;4.95;77.84
73457;BME280;61691;53.072;6.582;2023-02-28T08:58:39;103278.88;;;5.06;77.30
73457;BME280;61691;53.072;6.582;2023-02-28T09:01:11;103263.00;;;5.11;77.65
73457;BME280;61691;53.072;6.582;2023-02-28T09:03:39;103290.31;;;5.38;77.43
73457;BME280;61691;53.072;6.582;2023-02-28T09:06:09;103282.91;;;5.52;77.60
73457;BME280;61691;53.072;6.582;2023-02-28T09:08:36;103287.91;;;5.61;77.42
73457;BME280;61691;53.072;6.582;2023-02-28T09:11:04;103288.69;;;5.65;76.74
73457;BME280;61691;53.072;6.582;2023-02-28T09:13:31;103295.59;;;5.69;76.44
73457;BME280;61691;53.072;6.582;2023-02-28T09:16:00;103264.41;;;5.55;76.54
73457;BME280;61691;53.072;6.582;2023-02-28T09:18:28;103280.94;;;5.60;76.39
73457;BME280;61691;53.072;6.582;2023-02-28T09:20:55;103283.69;;;5.56;76.50
73457;BME280;61691;53.072;6.582;2023-02-28T09:23:22;103260.72;;;5.30;76.14
73457;BME280;61691;53.072;6.582;2023-02-28T09:25:51;103284.13;;;5.40;75.80
73457;BME280;61691;53.072;6.582;2023-02-28T09:28:20;103297.19;;;5.42;76.38
73457;BME280;61691;53.072;6.582;2023-02-28T09:30:49;103276.44;;;5.33;76.04
73457;BME280;61691;53.072;6.582;2023-02-28T09:33:17;103287.03;;;5.30;75.79
73457;BME280;61691;53.072;6.582;2023-02-28T09:35:47;103301.00;;;5.32;75.49
73457;BME280;61691;53.072;6.582;2023-02-28T09:38:15;103285.41;;;5.26;75.85
73457;BME280;61691;53.072;6.582;2023-02-28T09:41:03;103226.63;;;4.94;75.77
73457;BME280;61691;53.072;6.582;2023-02-28T09:43:36;103261.13;;;5.15;75.59
73457;BME280;61691;53.072;6.582;2023-02-28T09:48:41;103265.44;;;5.19;75.48
73457;BME280;61691;53.072;6.582;2023-02-28T09:53:49;103265.66;;;5.10;74.75
73457;BME280;61691;53.072;6.582;2023-02-28T09:56:41;103286.41;;;5.20;74.86
73457;BME280;61691;53.072;6.582;2023-02-28T09:59:28;103287.19;;;5.24;74.99
73457;BME280;61691;53.072;6.582;2023-02-28T10:04:56;103286.94;;;5.33;74.78
73457;BME280;61691;53.072;6.582;2023-02-28T10:10:00;103270.38;;;5.29;74.44
73457;BME280;61691;53.072;6.582;2023-02-28T10:12:29;103282.47;;;5.36;74.36
73457;BME280;61691;53.072;6.582;2023-02-28T10:14:59;103271.94;;;5.36;74.55
73457;BME280;61691;53.072;6.582;2023-02-28T10:17:32;103290.06;;;5.47;74.46
73457;BME280;61691;53.072;6.582;2023-02-28T10:20:22;103289.31;;;5.42;74.33
73457;BME280;61691;53.072;6.582;2023-02-28T10:23:09;103290.72;;;5.55;73.87
73457;BME280;61691;53.072;6.582;2023-02-28T10:25:39;103299.38;;;5.59;74.02
73457;BME280;61691;53.072;6.582;2023-02-28T10:28:14;103298.50;;;5.58;73.25
73457;BME280;61691;53.072;6.582;2023-02-28T10:30:44;103301.16;;;5.58;73.35
73457;BME280;61691;53.072;6.582;2023-02-28T10:35:52;103279.53;;;5.47;72.91
73457;BME280;61691;53.072;6.582;2023-02-28T10:38:25;103300.16;;;5.62;72.41
73457;BME280;61691;53.072;6.582;2023-02-28T10:41:09;103278.34;;;5.59;72.17
73457;BME280;61691;53.072;6.582;2023-02-28T10:43:40;103301.53;;;5.75;71.97
73457;BME280;61691;53.072;6.582;2023-02-28T10:48:59;103300.38;;;5.86;71.15
73457;BME280;61691;53.072;6.582;2023-02-28T10:51:34;103256.16;;;5.67;70.76
73457;BME280;61691;53.072;6.582;2023-02-28T10:54:03;103289.56;;;5.96;71.06
73457;BME280;61691;53.072;6.582;2023-02-28T10:56:32;103275.22;;;5.75;68.61
73457;BME280;61691;53.072;6.582;2023-02-28T10:59:26;103276.06;;;5.77;66.00
73457;BME280;61691;53.072;6.582;2023-02-28T11:01:53;103278.84;;;5.71;68.07
73457;BME280;61691;53.072;6.582;2023-02-28T11:07:02;103206.97;;;5.40;68.44
73457;BME280;61691;53.072;6.582;2023-02-28T11:09:39;103276.69;;;5.86;67.02
73457;BME280;61691;53.072;6.582;2023-02-28T11:12:19;103268.84;;;5.84;67.27
73457;BME280;61691;53.072;6.582;2023-02-28T11:15:21;103264.44;;;5.84;66.21
73457;BME280;61691;53.072;6.582;2023-02-28T11:20:38;103271.81;;;6.03;65.95
73457;BME280;61691;53.072;6.582;2023-02-28T11:23:12;103276.16;;;6.04;65.50
73457;BME280;61691;53.072;6.582;2023-02-28T11:25:47;103268.28;;;6.04;66.14
73457;BME280;61691;53.072;6.582;2023-02-28T11:28:33;103275.91;;;6.13;65.64
73457;BME280;61691;53.072;6.582;2023-02-28T11:33:51;103274.81;;;6.20;64.68
73457;BME280;61691;53.072;6.582;2023-02-28T11:38:47;103242.56;;;6.12;64.68
73457;BME280;61691;53.072;6.582;2023-02-28T11:44:32;103266.44;;;6.35;64.19
73457;BME280;61691;53.072;6.582;2023-02-28T11:47:48;103267.88;;;6.45;63.87
73457;BME280;61691;53.072;6.582;2023-02-28T11:53:00;103264.00;;;6.55;63.96
73457;BME280;61691;53.072;6.582;2023-02-28T11:55:32;103255.00;;;6.63;63.26
73457;BME280;61691;53.072;6.582;2023-02-28T11:58:27;103257.47;;;6.69;62.32
73457;BME280;61691;53.072;6.582;2023-02-28T12:03:39;103254.56;;;6.76;61.70
73457;BME280;61691;53.072;6.582;2023-02-28T12:06:13;103247.41;;;6.80;61.79
73457;BME280;61691;53.072;6.582;2023-02-28T12:26:56;103223.19;;;6.69;60.55
73457;BME280;61691;53.072;6.582;2023-02-28T12:29:32;103210.09;;;6.66;60.56
73457;BME280;61691;53.072;6.582;2023-02-28T12:32:05;103245.38;;;6.88;60.29
73457;BME280;61691;53.072;6.582;2023-02-28T12:34:39;103233.91;;;6.89;60.09
73457;BME280;61691;53.072;6.582;2023-02-28T12:37:14;103236.34;;;6.95;60.40
73457;BME280;61691;53.072;6.582;2023-02-28T12:39:48;103234.38;;;7.00;59.64
73457;BME280;61691;53.072;6.582;2023-02-28T12:42:29;103206.50;;;6.93;60.03
73457;BME280;61691;53.072;6.582;2023-02-28T12:45:01;103193.31;;;6.93;59.32
73457;BME280;61691;53.072;6.582;2023-02-28T12:47:28;103207.94;;;7.03;58.99
73457;BME280;61691;53.072;6.582;2023-02-28T12:49:59;103167.22;;;6.85;59.32
73457;BME280;61691;53.072;6.582;2023-02-28T12:52:41;103219.75;;;7.16;58.47
73457;BME280;61691;53.072;6.582;2023-02-28T12:55:26;103214.00;;;7.05;57.24
73457;BME280;61691;53.072;6.582;2023-02-28T13:01:13;103202.38;;;6.86;58.04
73457;BME280;61691;53.072;6.582;2023-02-28T13:09:52;103153.03;;;6.65;57.96
73457;BME280;61691;53.072;6.582;2023-02-28T13:12:19;103184.81;;;6.85;57.82
73457;BME280;61691;53.072;6.582;2023-02-28T13:14:47;103165.91;;;6.74;57.76
73457;BME280;61691;53.072;6.582;2023-02-28T13:17:20;103170.13;;;6.78;57.87
73457;BME280;61691;53.072;6.582;2023-02-28T13:27:50;103134.34;;;6.71;57.40
73457;BME280;61691;53.072;6.582;2023-02-28T13:38:54;103171.13;;;6.75;56.95
73457;BME280;61691;53.072;6.582;2023-02-28T13:46:30;103178.78;;;6.56;57.22
73457;BME280;61691;53.072;6.582;2023-02-28T13:51:52;103174.03;;;6.41;56.61
73457;BME280;61691;53.072;6.582;2023-02-28T13:54:44;103181.91;;;6.41;56.96
73457;BME280;61691;53.072;6.582;2023-02-28T14:05:32;103163.00;;;6.30;56.36
73457;BME280;61691;53.072;6.582;2023-02-28T14:08:06;103150.00;;;6.24;56.10
73457;BME280;61691;53.072;6.582;2023-02-28T14:11:08;103164.50;;;6.37;56.05
73457;BME280;61691;53.072;6.582;2023-02-28T14:13:40;103141.25;;;6.24;56.16
73457;BME280;61691;53.072;6.582;2023-02-28T14:16:14;103173.88;;;6.46;55.80
73457;BME280;61691;53.072;6.582;2023-02-28T14:18:49;103169.41;;;6.48;55.08
73457;BME280;61691;53.072;6.582;2023-02-28T14:21:29;103129.75;;;6.26;53.88
73457;BME280;61691;53.072;6.582;2023-02-28T14:32:35;103162.09;;;6.56;54.85
73457;BME280;61691;53.072;6.582;2023-02-28T14:35:16;103167.94;;;6.66;54.46
73457;BME280;61691;53.072;6.582;2023-02-28T14:37:47;103153.19;;;6.60;54.67
73457;BME280;61691;53.072;6.582;2023-02-28T14:40:20;103165.28;;;6.66;54.45
73457;BME280;61691;53.072;6.582;2023-02-28T14:42:55;103159.72;;;6.75;54.38
73457;BME280;61691;53.072;6.582;2023-02-28T14:45:23;103164.00;;;6.77;54.61
73457;BME280;61691;53.072;6.582;2023-02-28T14:47:51;103145.63;;;6.76;54.75
73457;BME280;61691;53.072;6.582;2023-02-28T14:50:55;103162.59;;;6.92;55.06
73457;BME280;61691;53.072;6.582;2023-02-28T14:53:26;103148.63;;;6.90;54.63
73457;BME280;61691;53.072;6.582;2023-02-28T14:55:54;103139.91;;;6.88;54.65
73457;BME280;61691;53.072;6.582;2023-02-28T14:58:29;103158.84;;;6.99;52.88
73457;BME280;61691;53.072;6.582;2023-02-28T15:01:01;103126.91;;;6.83;53.47
73457;BME280;61691;53.072;6.582;2023-02-28T15:03:37;103158.97;;;6.96;53.39
73457;BME280;61691;53.072;6.582;2023-02-28T15:06:15;103157.00;;;7.01;53.52
73457;BME280;61691;53.072;6.582;2023-02-28T15:08:44;103157.00;;;7.01;53.30
73457;BME280;61691;53.072;6.582;2023-02-28T15:11:17;103140.53;;;6.94;53.43
73457;BME280;61691;53.072;6.582;2023-02-28T15:13:50;103134.53;;;6.91;53.59
73457;BME280;61691;53.072;6.582;2023-02-28T15:16:34;103150.72;;;7.05;53.41
73457;BME280;61691;53.072;6.582;2023-02-28T15:19:26;103146.47;;;7.01;52.90
73457;BME280;61691;53.072;6.582;2023-02-28T15:22:04;103153.69;;;6.96;53.09
73457;BME280;61691;53.072;6.582;2023-02-28T15:24:42;103134.22;;;6.75;53.24
73457;BME280;61691;53.072;6.582;2023-02-28T15:27:20;103138.63;;;6.75;53.61
73457;BME280;61691;53.072;6.582;2023-02-28T15:29:50;103133.66;;;6.66;53.22
73457;BME280;61691;53.072;6.582;2023-02-28T15:34:56;103150.34;;;6.66;53.12
73457;BME280;61691;53.072;6.582;2023-02-28T15:42:37;103114.84;;;6.51;53.84
73457;BME280;61691;53.072;6.582;2023-02-28T15:45:05;103149.56;;;6.63;54.08